KECS/ECS METAR and TAF weather

Enter ICAO airport designator
Station Type Date Time Source
KECS METAR 2018/12/12 23:55 UTC NOAA

KECS 122355Z AUTO 32020G25KT 4SM -SN BKN009 OVC014 00/00 A2978 RMK AO2


Station Type Date Time Source
KECS Decoded METAR 2018/12/12 23:55 UTC NOAA

Station name not available
Dec 12, 2018 - 06:55 PM EST / 2018.12.12 2355 UTC
Wind: from the NW (320 degrees) at 23 MPH (20 KT) gusting to 29 MPH (25 KT):0
Visibility: 4 mile(s):0
Sky conditions: overcast
Weather: light snow
Temperature: 32 F (0 C)
Windchill: 19 F (-7 C):1
Dew Point: 32 F (0 C)
Relative Humidity: 100%
Pressure (altimeter): 29.78 in. Hg (1008 hPa)
ob: KECS 122355Z AUTO 32020G25KT 4SM -SN BKN009 OVC014 00/00 A2978 RMK AO2
cycle: 0

Station Type Date Time Source
KECS TAF UTC NOAA

Error!


Example: see airport list